createdAt,value
2023-04-18T00:01:38.680Z,7.46
2023-04-18T00:04:09.428Z,7.38
2023-04-18T00:06:40.209Z,7.42
2023-04-18T00:09:10.731Z,7.29
2023-04-18T00:11:41.015Z,7.31
2023-04-18T00:14:12.170Z,7.30
2023-04-18T00:16:48.871Z,7.20
2023-04-18T00:19:19.152Z,7.20
2023-04-18T00:21:49.641Z,7.13
2023-04-18T00:24:20.034Z,7.15
2023-04-18T00:26:50.241Z,7.19
2023-04-18T00:29:20.272Z,7.16
2023-04-18T00:31:53.368Z,7.03
2023-04-18T00:34:23.613Z,7.17
2023-04-18T00:36:56.675Z,7.14
2023-04-18T00:39:26.815Z,7.18
2023-04-18T00:41:57.308Z,7.04
2023-04-18T00:44:27.357Z,7.08
2023-04-18T00:47:00.292Z,7.08
2023-04-18T00:49:31.077Z,7.07
2023-04-18T00:52:02.482Z,7.09
2023-04-18T00:54:33.194Z,6.82
2023-04-18T00:57:03.367Z,7.12
2023-04-18T00:59:33.792Z,7.08
2023-04-18T01:02:07.513Z,7.06
2023-04-18T01:04:38.010Z,6.96
2023-04-18T01:07:08.735Z,7.08
2023-04-18T01:09:42.329Z,7.06
2023-04-18T01:12:14.960Z,7.07
2023-04-18T01:14:49.047Z,7.03
2023-04-18T01:17:23.700Z,7.01
2023-04-18T01:19:55.170Z,6.98
2023-04-18T01:22:25.754Z,6.95
2023-04-18T01:24:58.944Z,6.95
2023-04-18T01:27:29.304Z,6.98
2023-04-18T01:29:59.705Z,6.87
2023-04-18T01:32:33.367Z,6.92
2023-04-18T01:35:04.144Z,6.94
2023-04-18T01:37:34.909Z,6.95
2023-04-18T01:40:09.546Z,6.85
2023-04-18T01:42:41.252Z,6.88
2023-04-18T01:45:16.181Z,6.88
2023-04-18T01:47:46.801Z,6.80
2023-04-18T01:50:17.485Z,6.73
2023-04-18T01:52:47.987Z,6.73
2023-04-18T01:55:22.716Z,6.72
2023-04-18T01:57:53.686Z,6.74
2023-04-18T02:00:24.793Z,6.73
2023-04-18T02:02:54.951Z,6.73
2023-04-18T02:05:27.323Z,6.71
2023-04-18T02:07:57.981Z,6.70
2023-04-18T02:10:31.172Z,6.63
2023-04-18T02:13:01.312Z,6.60
2023-04-18T02:15:31.555Z,6.57
2023-04-18T02:18:02.827Z,6.56
2023-04-18T02:20:35.108Z,6.47
2023-04-18T02:23:05.983Z,6.40
2023-04-18T02:25:38.832Z,6.33
2023-04-18T02:28:09.083Z,6.25
2023-04-18T02:30:39.628Z,6.14
2023-04-18T02:33:09.884Z,6.14
2023-04-18T02:35:40.962Z,6.12
2023-04-18T02:38:14.155Z,6.10
2023-04-18T02:40:47.472Z,6.10
2023-04-18T02:43:17.966Z,6.01
2023-04-18T02:45:48.300Z,6.11
2023-04-18T02:48:18.724Z,6.08
2023-04-18T02:50:49.426Z,5.99
2023-04-18T02:53:19.978Z,5.79
2023-04-18T02:55:59.344Z,6.07
2023-04-18T02:58:40.303Z,6.04
2023-04-18T03:01:32.225Z,6.00
2023-04-18T03:04:13.167Z,5.88
2023-04-18T03:06:48.040Z,5.97
2023-04-18T03:09:19.327Z,5.98
2023-04-18T03:11:56.889Z,5.98
2023-04-18T03:14:30.485Z,6.00
2023-04-18T03:17:00.833Z,6.05
2023-04-18T03:19:37.487Z,6.10
2023-04-18T03:22:11.750Z,6.11
2023-04-18T03:24:49.375Z,6.15
2023-04-18T03:27:24.400Z,6.11
2023-04-18T03:29:54.762Z,6.20
2023-04-18T03:32:26.156Z,6.22
2023-04-18T03:34:57.187Z,6.21
2023-04-18T03:37:27.527Z,6.27
2023-04-18T03:39:59.723Z,6.34
2023-04-18T03:42:34.425Z,6.33
2023-04-18T03:45:04.506Z,6.33
2023-04-18T03:47:38.184Z,6.34
2023-04-18T03:50:09.931Z,6.35
2023-04-18T03:52:41.132Z,6.36
2023-04-18T03:55:12.349Z,6.33
2023-04-18T03:57:45.132Z,6.34
2023-04-18T04:00:22.735Z,6.34
2023-04-18T04:03:03.086Z,6.34
2023-04-18T04:05:33.340Z,6.31
2023-04-18T04:08:03.510Z,6.37
2023-04-18T04:10:33.713Z,6.32
2023-04-18T04:13:06.612Z,6.40
2023-04-18T04:15:40.391Z,6.43
2023-04-18T04:18:13.449Z,6.43
2023-04-18T04:20:49.031Z,6.36
2023-04-18T04:23:33.286Z,6.37
2023-04-18T04:26:04.850Z,6.36
2023-04-18T04:28:49.313Z,6.37
2023-04-18T04:31:23.240Z,6.39
2023-04-18T04:33:53.920Z,6.38
2023-04-18T04:36:30.288Z,6.43
2023-04-18T04:39:02.905Z,6.45
2023-04-18T04:41:41.689Z,6.43
2023-04-18T04:44:18.100Z,6.41
2023-04-18T04:46:50.033Z,6.44
2023-04-18T04:49:24.951Z,6.42
2023-04-18T04:51:55.139Z,6.42
2023-04-18T04:54:25.435Z,6.41
2023-04-18T04:56:55.800Z,6.42
2023-04-18T04:59:41.532Z,6.42
2023-04-18T05:02:11.904Z,6.45
2023-04-18T05:04:42.485Z,6.44
2023-04-18T05:07:12.986Z,6.48
2023-04-18T05:09:43.180Z,6.49
2023-04-18T05:12:13.479Z,6.47
2023-04-18T05:14:46.689Z,6.52
2023-04-18T05:17:16.847Z,6.49
2023-04-18T05:19:47.232Z,6.49
2023-04-18T05:22:17.567Z,6.53
2023-04-18T05:24:47.824Z,6.53
2023-04-18T05:27:18.294Z,6.55
2023-04-18T05:29:51.152Z,6.61
2023-04-18T05:32:21.894Z,6.60
2023-04-18T05:34:52.306Z,6.65
2023-04-18T05:37:22.740Z,6.63
2023-04-18T05:39:52.990Z,6.69
2023-04-18T05:42:23.121Z,6.71
2023-04-18T05:44:55.887Z,6.76
2023-04-18T05:47:28.710Z,6.76
2023-04-18T05:49:59.000Z,6.77
2023-04-18T05:52:29.268Z,6.76
2023-04-18T05:54:59.651Z,6.81
2023-04-18T05:57:29.954Z,6.84
2023-04-18T06:00:02.848Z,6.86
2023-04-18T06:02:43.007Z,6.87
2023-04-18T06:05:15.401Z,6.89
2023-04-18T06:07:46.218Z,6.91
2023-04-18T06:10:16.546Z,6.89
2023-04-18T06:12:46.636Z,6.87
2023-04-18T06:15:19.658Z,6.95
2023-04-18T06:17:49.960Z,6.97
2023-04-18T06:20:20.234Z,6.95
2023-04-18T06:22:50.677Z,6.93
2023-04-18T06:25:21.075Z,6.98
2023-04-18T06:27:51.205Z,6.98
2023-04-18T06:30:24.174Z,6.94
2023-04-18T06:32:54.634Z,6.98
2023-04-18T06:35:26.496Z,6.96
2023-04-18T06:37:56.810Z,6.94
2023-04-18T06:40:27.185Z,6.94
2023-04-18T06:42:57.261Z,6.99
2023-04-18T06:45:30.325Z,7.13
2023-04-18T06:48:02.043Z,7.16
2023-04-18T06:50:32.591Z,7.17
2023-04-18T06:53:02.775Z,7.17
2023-04-18T06:55:37.056Z,7.09
2023-04-18T06:58:08.817Z,7.15
2023-04-18T07:00:41.600Z,7.01
2023-04-18T07:03:13.866Z,7.18
2023-04-18T07:05:44.435Z,7.15
2023-04-18T07:08:14.627Z,7.09
2023-04-18T07:10:46.981Z,7.09
2023-04-18T07:13:17.512Z,6.79
2023-04-18T07:15:50.534Z,7.13
2023-04-18T07:18:26.765Z,7.11
2023-04-18T07:21:07.958Z,7.16
2023-04-18T07:23:38.347Z,7.13
2023-04-18T07:26:10.229Z,7.11
2023-04-18T07:28:40.630Z,7.06
2023-04-18T07:31:14.855Z,7.09
2023-04-18T07:33:45.430Z,7.07
2023-04-18T07:36:15.605Z,7.11
2023-04-18T07:38:46.522Z,7.14
2023-04-18T07:41:16.976Z,7.10
2023-04-18T07:43:47.481Z,7.09
2023-04-18T07:46:20.336Z,7.10
2023-04-18T07:48:50.928Z,7.14
2023-04-18T07:51:21.105Z,7.15
2023-04-18T07:53:51.317Z,7.34
2023-04-18T07:56:21.969Z,7.47
2023-04-18T07:58:52.324Z,7.60
2023-04-18T08:01:27.360Z,7.72
2023-04-18T08:04:02.044Z,7.91
2023-04-18T08:06:32.572Z,8.02
2023-04-18T08:09:04.851Z,8.16
2023-04-18T08:11:35.695Z,8.31
2023-04-18T08:14:05.943Z,8.55
2023-04-18T08:16:40.023Z,8.61
2023-04-18T08:19:12.296Z,8.63
2023-04-18T08:21:46.009Z,8.67
2023-04-18T08:24:16.292Z,8.65
2023-04-18T08:26:46.541Z,8.74
2023-04-18T08:29:16.743Z,8.75
2023-04-18T08:31:49.579Z,8.69
2023-04-18T08:34:19.768Z,8.80
2023-04-18T08:36:50.126Z,8.83
2023-04-18T08:39:20.476Z,8.90
2023-04-18T08:41:57.545Z,8.79
2023-04-18T08:44:27.955Z,8.86
2023-04-18T08:47:01.957Z,8.97
2023-04-18T08:49:34.159Z,9.12
2023-04-18T08:52:05.622Z,9.24
2023-04-18T08:54:38.354Z,9.32
2023-04-18T08:57:09.262Z,9.18
2023-04-18T08:59:40.449Z,9.26
2023-04-18T09:02:13.370Z,9.39
2023-04-18T09:04:46.107Z,9.54
2023-04-18T09:07:19.058Z,9.53
2023-04-18T09:09:51.040Z,9.69
2023-04-18T09:12:23.256Z,9.80
2023-04-18T09:14:57.820Z,9.86
2023-04-18T09:17:42.474Z,9.96
2023-04-18T09:20:15.582Z,10.25
2023-04-18T09:22:48.923Z,10.64
2023-04-18T09:25:29.697Z,10.43
2023-04-18T09:28:01.314Z,10.13
2023-04-18T09:30:38.433Z,9.86
2023-04-18T09:33:12.967Z,9.65
2023-04-18T09:35:43.012Z,9.58
2023-04-18T09:38:13.189Z,9.61
2023-04-18T09:40:43.354Z,9.87
2023-04-18T09:43:23.457Z,10.15
2023-04-18T09:45:54.908Z,10.47
2023-04-18T09:48:27.863Z,10.65
2023-04-18T09:50:58.222Z,10.67
2023-04-18T09:53:29.392Z,10.48
2023-04-18T09:56:00.610Z,10.61
2023-04-18T09:58:35.537Z,10.54
2023-04-18T10:01:07.657Z,10.37
2023-04-18T10:03:47.412Z,10.53
2023-04-18T10:06:19.669Z,10.94
2023-04-18T10:08:51.914Z,11.12
2023-04-18T10:11:22.179Z,11.04
2023-04-18T10:13:56.157Z,10.81
2023-04-18T10:16:26.953Z,10.61
2023-04-18T10:18:59.813Z,10.56
2023-04-18T10:21:31.725Z,10.64
2023-04-18T10:24:02.094Z,10.69
2023-04-18T10:26:50.546Z,10.63
2023-04-18T10:29:20.936Z,10.73
2023-04-18T10:31:51.893Z,10.80
2023-04-18T10:34:24.797Z,10.79
2023-04-18T10:37:08.740Z,10.78
2023-04-18T10:39:54.043Z,10.85
2023-04-18T10:43:02.652Z,10.98
2023-04-18T10:45:36.667Z,11.03
2023-04-18T10:48:29.544Z,11.10
2023-04-18T10:51:26.551Z,11.21
2023-04-18T10:54:00.578Z,11.22
2023-04-18T10:56:31.471Z,11.13
2023-04-18T10:59:05.638Z,11.06
2023-04-18T11:01:40.723Z,11.08
2023-04-18T11:04:16.573Z,11.08
2023-04-18T11:06:55.094Z,11.23
2023-04-18T11:09:25.459Z,11.36
2023-04-18T11:12:10.042Z,11.45
2023-04-18T11:14:43.926Z,11.55
2023-04-18T11:17:22.463Z,11.59
2023-04-18T11:19:53.325Z,11.61
2023-04-18T11:22:26.268Z,12.00
2023-04-18T11:25:02.046Z,11.97
2023-04-18T11:27:32.750Z,11.81
2023-04-18T11:30:02.886Z,11.81
2023-04-18T11:32:33.621Z,12.08
2023-04-18T11:35:03.965Z,11.94
2023-04-18T11:37:38.148Z,11.67
2023-04-18T11:40:09.239Z,11.63
2023-04-18T11:42:41.500Z,11.55
2023-04-18T11:45:16.150Z,11.56
2023-04-18T11:47:46.980Z,11.82
2023-04-18T11:50:17.558Z,11.77
2023-04-18T11:52:54.181Z,11.60
2023-04-18T11:55:27.420Z,11.89
2023-04-18T11:57:59.052Z,12.19
2023-04-18T12:00:37.717Z,11.97
2023-04-18T12:03:12.648Z,11.63
2023-04-18T12:05:45.399Z,11.44
2023-04-18T12:08:26.029Z,11.40
2023-04-18T12:10:58.014Z,11.19
2023-04-18T12:13:29.776Z,11.32
2023-04-18T12:16:00.871Z,11.26
2023-04-18T12:18:31.705Z,11.15
2023-04-18T12:21:02.230Z,11.13
2023-04-18T12:23:37.229Z,11.27
2023-04-18T12:26:09.124Z,11.28
2023-04-18T12:28:39.536Z,11.23
2023-04-18T12:31:09.884Z,11.44
2023-04-18T12:33:40.242Z,11.62
2023-04-18T12:36:11.380Z,11.90
2023-04-18T12:38:44.764Z,11.96
2023-04-18T12:41:14.945Z,12.07
2023-04-18T12:43:45.660Z,12.25
2023-04-18T12:46:15.910Z,12.13
2023-04-18T12:48:46.357Z,11.99
2023-04-18T12:51:16.890Z,11.99
2023-04-18T12:53:49.628Z,11.96
2023-04-18T12:56:19.836Z,12.12
2023-04-18T12:58:50.080Z,12.34
2023-04-18T13:01:21.135Z,12.17
2023-04-18T13:04:03.936Z,12.23
2023-04-18T13:06:41.582Z,11.88
2023-04-18T13:09:17.156Z,12.20
2023-04-18T13:11:49.557Z,12.34
2023-04-18T13:14:20.091Z,12.37
2023-04-18T13:16:50.228Z,12.26
2023-04-18T13:19:20.581Z,12.17
2023-04-18T13:21:51.855Z,12.21
2023-04-18T13:24:24.794Z,12.09
2023-04-18T13:26:55.128Z,12.17
2023-04-18T13:29:25.349Z,12.26
2023-04-18T13:31:55.832Z,12.52
2023-04-18T13:34:26.065Z,12.55
2023-04-18T13:36:57.878Z,12.54
2023-04-18T13:39:32.232Z,12.60
2023-04-18T13:42:03.465Z,12.41
2023-04-18T13:44:34.118Z,12.48
2023-04-18T13:47:05.188Z,12.54
2023-04-18T13:49:37.420Z,12.76
2023-04-18T13:52:08.547Z,12.80
2023-04-18T13:54:41.536Z,12.92
2023-04-18T13:57:14.889Z,12.82
2023-04-18T13:59:45.168Z,12.79
2023-04-18T14:02:15.992Z,12.54
2023-04-18T14:04:46.888Z,12.64
2023-04-18T14:07:17.219Z,12.55
2023-04-18T14:09:50.816Z,12.66
2023-04-18T14:12:21.925Z,12.93
2023-04-18T14:14:52.210Z,13.10
2023-04-18T14:17:22.733Z,13.25
2023-04-18T14:19:52.979Z,13.22
2023-04-18T14:22:23.522Z,13.18
2023-04-18T14:24:56.790Z,13.31
2023-04-18T14:27:27.576Z,13.46
2023-04-18T14:29:57.739Z,13.39
2023-04-18T14:32:28.238Z,13.23
2023-04-18T14:34:59.220Z,13.32
2023-04-18T14:37:29.470Z,13.40
2023-04-18T14:40:02.356Z,13.53
2023-04-18T14:42:32.485Z,13.63
2023-04-18T14:45:03.344Z,13.62
2023-04-18T14:47:34.962Z,13.66
2023-04-18T14:50:05.087Z,13.50
2023-04-18T14:52:35.802Z,13.55
2023-04-18T14:55:10.076Z,13.70
2023-04-18T14:57:41.184Z,13.56
2023-04-18T15:00:13.203Z,13.42
2023-04-18T15:02:43.943Z,13.24
2023-04-18T15:05:15.344Z,13.30
2023-04-18T15:07:46.228Z,13.28
2023-04-18T15:10:19.062Z,13.32
2023-04-18T15:12:51.479Z,13.27
2023-04-18T15:15:22.963Z,13.35
2023-04-18T15:17:53.079Z,13.36
2023-04-18T15:20:24.094Z,13.44
2023-04-18T15:22:54.697Z,13.36
2023-04-18T15:25:27.951Z,13.41
2023-04-18T15:27:58.401Z,13.40
2023-04-18T15:30:29.227Z,13.49
2023-04-18T15:32:59.391Z,13.54
2023-04-18T15:35:29.830Z,13.45
2023-04-18T15:38:00.432Z,13.42
2023-04-18T15:40:33.384Z,13.38
2023-04-18T15:43:04.255Z,13.47
2023-04-18T15:45:34.489Z,13.54
2023-04-18T15:48:04.789Z,13.52
2023-04-18T15:50:35.131Z,13.45
2023-04-18T15:53:05.485Z,13.38
2023-04-18T15:55:38.532Z,13.38
2023-04-18T15:58:08.950Z,13.31
2023-04-18T16:00:50.906Z,13.28
2023-04-18T16:03:21.412Z,13.31
2023-04-18T16:05:51.928Z,13.30
2023-04-18T16:08:22.274Z,13.29
2023-04-18T16:10:55.451Z,13.24
2023-04-18T16:13:25.777Z,13.30
2023-04-18T16:15:56.274Z,13.22
2023-04-18T16:18:26.496Z,13.19
2023-04-18T16:20:56.734Z,13.11
2023-04-18T16:23:27.946Z,13.00
2023-04-18T16:26:00.875Z,13.04
2023-04-18T16:28:31.089Z,13.17
2023-04-18T16:31:01.403Z,13.01
2023-04-18T16:33:31.656Z,12.97
2023-04-18T16:36:03.493Z,12.98
2023-04-18T16:38:33.799Z,12.95
2023-04-18T16:41:09.611Z,13.01
2023-04-18T16:43:40.014Z,13.04
2023-04-18T16:46:12.109Z,13.08
2023-04-18T16:48:42.513Z,13.09
2023-04-18T16:51:13.320Z,12.93
2023-04-18T16:53:44.764Z,12.90
2023-04-18T16:56:17.817Z,12.85
2023-04-18T16:58:48.576Z,12.82
2023-04-18T17:01:20.653Z,12.70
2023-04-18T17:03:51.650Z,12.65
2023-04-18T17:06:24.999Z,12.62
2023-04-18T17:08:55.915Z,12.66
2023-04-18T17:11:30.306Z,12.57
2023-04-18T17:14:00.841Z,12.58
2023-04-18T17:16:30.996Z,12.54
2023-04-18T17:19:01.855Z,12.46
2023-04-18T17:21:33.553Z,12.41
2023-04-18T17:24:04.114Z,12.37
2023-04-18T17:26:37.638Z,12.33
2023-04-18T17:29:07.862Z,12.23
2023-04-18T17:31:38.043Z,12.21
2023-04-18T17:34:08.547Z,12.19
2023-04-18T17:36:38.893Z,12.17
2023-04-18T17:39:09.917Z,12.15
2023-04-18T17:41:42.576Z,12.10
2023-04-18T17:44:12.847Z,12.06
2023-04-18T17:46:43.616Z,12.06
2023-04-18T17:49:14.844Z,12.05
2023-04-18T17:51:46.366Z,12.09
2023-04-18T17:54:21.351Z,12.10
2023-04-18T17:56:56.959Z,12.09
2023-04-18T17:59:28.491Z,12.11
2023-04-18T18:01:59.745Z,12.07
2023-04-18T18:04:30.650Z,12.02
2023-04-18T18:07:04.317Z,11.99
2023-04-18T18:09:34.482Z,11.96
2023-04-18T18:12:07.627Z,11.97
2023-04-18T18:14:37.958Z,11.94
2023-04-18T18:17:08.181Z,11.96
2023-04-18T18:19:39.098Z,11.96
2023-04-18T18:22:09.715Z,11.94
2023-04-18T18:24:40.152Z,11.93
2023-04-18T18:27:13.060Z,11.97
2023-04-18T18:29:43.325Z,11.97
2023-04-18T18:32:13.471Z,12.00
2023-04-18T18:34:43.647Z,11.99
2023-04-18T18:37:13.917Z,12.00
2023-04-18T18:39:44.106Z,11.95
2023-04-18T18:42:17.056Z,11.99
2023-04-18T18:44:47.363Z,11.97
2023-04-18T18:47:17.756Z,11.97
2023-04-18T18:49:48.948Z,11.94
2023-04-18T18:52:19.354Z,11.91
2023-04-18T18:54:49.788Z,11.89
2023-04-18T18:57:22.694Z,11.94
2023-04-18T18:59:56.319Z,11.94
2023-04-18T19:02:26.616Z,11.94
2023-04-18T19:04:57.172Z,11.87
2023-04-18T19:07:29.524Z,11.85
2023-04-18T19:10:01.828Z,11.64
2023-04-18T19:12:34.846Z,11.72
2023-04-18T19:15:05.534Z,11.57
2023-04-18T19:17:36.134Z,11.67
2023-04-18T19:20:07.085Z,11.66
2023-04-18T19:22:37.580Z,11.60
2023-04-18T19:25:09.025Z,11.56
2023-04-18T19:27:41.821Z,11.68
2023-04-18T19:30:13.047Z,11.64
2023-04-18T19:32:43.537Z,11.69
2023-04-18T19:35:13.964Z,11.70
2023-04-18T19:37:49.039Z,11.58
2023-04-18T19:40:20.078Z,11.63
2023-04-18T19:42:55.359Z,11.68
2023-04-18T19:45:26.320Z,11.67
2023-04-18T19:47:57.069Z,11.66
2023-04-18T19:50:28.026Z,11.61
2023-04-18T19:52:58.217Z,11.67
2023-04-18T19:55:28.817Z,11.66
2023-04-18T19:58:02.711Z,11.64
2023-04-18T20:00:34.290Z,11.62
2023-04-18T20:03:04.710Z,11.62
2023-04-18T20:05:35.136Z,11.61
2023-04-18T20:08:05.655Z,11.64
2023-04-18T20:10:37.639Z,11.58
2023-04-18T20:13:11.478Z,11.63
2023-04-18T20:15:42.440Z,11.60
2023-04-18T20:18:12.883Z,11.59
2023-04-18T20:20:43.313Z,11.57
2023-04-18T20:23:14.792Z,11.45
2023-04-18T20:25:45.028Z,11.49
2023-04-18T20:28:18.042Z,11.52
2023-04-18T20:30:48.563Z,11.52
2023-04-18T20:33:18.940Z,11.50
2023-04-18T20:35:49.709Z,11.44
2023-04-18T20:38:23.613Z,11.44
2023-04-18T20:40:59.589Z,11.35
2023-04-18T20:43:55.710Z,11.20
2023-04-18T20:46:32.078Z,11.38
2023-04-18T20:49:09.605Z,11.36
2023-04-18T20:51:40.916Z,11.34
2023-04-18T20:54:11.375Z,11.32
2023-04-18T20:56:41.377Z,11.28
2023-04-18T20:59:14.086Z,11.28
2023-04-18T21:01:44.404Z,11.29
2023-04-18T21:04:14.770Z,11.28
2023-04-18T21:06:45.243Z,11.27
2023-04-18T21:09:15.793Z,11.21
2023-04-18T21:11:46.057Z,11.23
2023-04-18T21:14:20.117Z,11.21
2023-04-18T21:16:50.229Z,11.16
2023-04-18T21:19:20.281Z,11.17
2023-04-18T21:21:50.473Z,11.15
2023-04-18T21:24:20.627Z,11.13
2023-04-18T21:26:50.956Z,11.10
2023-04-18T21:29:24.084Z,11.06
2023-04-18T21:31:54.362Z,11.03
2023-04-18T21:34:24.555Z,11.06
2023-04-18T21:36:54.668Z,11.04
2023-04-18T21:39:25.043Z,11.02
2023-04-18T21:41:55.543Z,11.00
2023-04-18T21:44:28.401Z,11.00
2023-04-18T21:46:59.647Z,10.95
2023-04-18T21:49:29.907Z,10.96
2023-04-18T21:52:00.131Z,10.94
2023-04-18T21:54:30.471Z,10.67
2023-04-18T21:57:00.955Z,10.92
2023-04-18T21:59:34.174Z,10.92
2023-04-18T22:02:05.141Z,10.81
2023-04-18T22:04:38.256Z,10.76
2023-04-18T22:07:09.012Z,10.81
2023-04-18T22:09:39.321Z,10.74
2023-04-18T22:12:09.658Z,10.76
2023-04-18T22:14:49.443Z,10.71
2023-04-18T22:17:21.083Z,10.73
2023-04-18T22:19:51.548Z,10.72
2023-04-18T22:22:22.254Z,10.69
2023-04-18T22:24:52.475Z,10.68
2023-04-18T22:27:22.752Z,10.65
2023-04-18T22:29:55.848Z,10.62
2023-04-18T22:32:26.091Z,10.59
2023-04-18T22:34:56.923Z,10.49
2023-04-18T22:37:27.170Z,10.47
2023-04-18T22:39:57.524Z,10.40
2023-04-18T22:42:29.895Z,10.32
2023-04-18T22:45:03.589Z,10.27
2023-04-18T22:47:34.831Z,10.22
2023-04-18T22:50:05.214Z,10.20
2023-04-18T22:52:35.614Z,10.14
2023-04-18T22:55:06.977Z,10.12
2023-04-18T22:57:37.180Z,10.09
2023-04-18T23:00:13.846Z,10.07
2023-04-18T23:02:44.443Z,10.05
2023-04-18T23:05:16.277Z,10.08
2023-04-18T23:07:46.479Z,10.11
2023-04-18T23:10:19.452Z,10.11
2023-04-18T23:12:50.077Z,10.04
2023-04-18T23:15:23.906Z,10.07
2023-04-18T23:17:55.519Z,10.05
2023-04-18T23:20:25.963Z,10.03
2023-04-18T23:22:56.322Z,10.01
2023-04-18T23:25:29.542Z,10.01
2023-04-18T23:27:59.733Z,9.99
2023-04-18T23:30:32.856Z,9.83
2023-04-18T23:33:03.464Z,9.92
2023-04-18T23:35:33.838Z,9.93
2023-04-18T23:38:04.049Z,9.92
2023-04-18T23:40:34.222Z,9.84
2023-04-18T23:43:04.620Z,9.85
2023-04-18T23:45:37.595Z,9.82
2023-04-18T23:48:07.810Z,9.80
2023-04-18T23:50:39.487Z,9.72
2023-04-18T23:53:09.709Z,9.73
2023-04-18T23:55:40.419Z,9.70
2023-04-18T23:58:10.558Z,9.67
